Time;durP1;ratioP1;P1;durP2;ratioP2;P2;SDS_P1;SDS_P2;PMS_P1;PMS_P2;Temp;Humidity;BMP_temperature;BMP_pressure;BME280_temperature;BME280_humidity;BME280_pressure;Samples;Min_cycle;Max_cycle;Signal;HPM_P1;HPM_P2
2021/01/10 00:00:19;;;;;;;9.98;6.82;;;-0.30;99.90;;;;;;4961001;28;20066;-69
2021/01/10 00:02:46;;;;;;;9.88;6.43;;;-0.20;99.90;;;;;;4957098;28;20472;-69
2021/01/10 00:05:23;;;;;;;9.82;6.47;;;-0.20;99.90;;;;;;4963023;28;20046;-67
2021/01/10 00:07:49;;;;;;;12.68;7.47;;;-0.20;99.90;;;;;;4960981;28;20707;-66
2021/01/10 00:10:18;;;;;;;7.13;5.38;;;-0.20;99.90;;;;;;4963639;28;20149;-67
2021/01/10 00:12:45;;;;;;;8.95;5.25;;;-0.20;99.90;;;;;;4963945;28;20047;-65
2021/01/10 00:15:14;;;;;;;14.82;7.80;;;-0.20;99.90;;;;;;4962736;28;20058;-67
2021/01/10 00:17:43;;;;;;;10.95;6.82;;;-0.20;99.90;;;;;;4963095;28;20059;-64
2021/01/10 00:20:11;;;;;;;9.75;7.22;;;-0.20;99.90;;;;;;4964607;28;20062;-63
2021/01/10 00:22:38;;;;;;;10.63;7.18;;;-0.20;99.90;;;;;;4963072;28;20050;-63
2021/01/10 00:25:09;;;;;;;10.07;6.88;;;-0.20;99.90;;;;;;4963690;28;20043;-67
2021/01/10 00:27:39;;;;;;;7.22;5.20;;;-0.20;99.90;;;;;;4962290;28;20054;-64
2021/01/10 00:30:07;;;;;;;9.80;6.38;;;-0.20;99.90;;;;;;4964079;28;20106;-67
2021/01/10 00:32:34;;;;;;;6.85;5.70;;;-0.20;99.90;;;;;;4963223;28;20698;-66
2021/01/10 00:35:01;;;;;;;8.77;5.78;;;-0.20;99.90;;;;;;4963430;28;20053;-66
2021/01/10 00:37:27;;;;;;;7.63;5.85;;;-0.20;99.90;;;;;;4961946;28;20059;-64
2021/01/10 00:39:54;;;;;;;8.13;5.47;;;-0.20;99.90;;;;;;4961784;28;20078;-67
2021/01/10 00:42:20;;;;;;;9.57;6.32;;;-0.20;99.90;;;;;;4965896;28;20042;-63
2021/01/10 00:44:48;;;;;;;6.72;5.88;;;-0.20;99.90;;;;;;4967331;28;20046;-63
2021/01/10 00:47:19;;;;;;;8.07;5.85;;;-0.20;99.90;;;;;;4966271;28;20153;-71
2021/01/10 00:49:47;;;;;;;10.55;7.25;;;-0.10;99.90;;;;;;4966165;28;20063;-64
2021/01/10 00:52:14;;;;;;;9.40;5.20;;;-0.20;99.90;;;;;;4962357;28;20129;-66
2021/01/10 00:54:43;;;;;;;8.88;6.35;;;-0.20;99.90;;;;;;4963833;28;20051;-69
2021/01/10 00:57:10;;;;;;;8.57;5.00;;;-0.10;99.90;;;;;;4966131;28;20043;-64
2021/01/10 00:59:39;;;;;;;7.72;5.05;;;-0.20;99.90;;;;;;4966582;28;20466;-64
2021/01/10 01:02:05;;;;;;;9.18;5.50;;;-0.10;99.90;;;;;;4966692;28;20047;-69
2021/01/10 01:04:33;;;;;;;8.30;4.90;;;-0.10;99.90;;;;;;4979741;28;20055;-67
2021/01/10 01:07:01;;;;;;;6.63;5.22;;;-0.10;99.90;;;;;;4977804;28;20058;-70
2021/01/10 01:09:28;;;;;;;7.80;4.47;;;-0.10;99.90;;;;;;4979610;28;20039;-64
2021/01/10 01:11:54;;;;;;;9.50;5.85;;;-0.10;99.90;;;;;;4966793;28;20137;-66
2021/01/10 01:14:21;;;;;;;6.18;4.80;;;-0.10;99.90;;;;;;4967355;28;20042;-68
2021/01/10 01:16:47;;;;;;;7.72;5.75;;;-0.10;99.90;;;;;;4967232;28;20053;-65
2021/01/10 01:19:15;;;;;;;8.02;6.18;;;-0.10;99.90;;;;;;4965044;28;20466;-67
2021/01/10 01:21:42;;;;;;;7.18;5.38;;;-0.10;99.90;;;;;;4967329;28;20046;-64
2021/01/10 01:24:08;;;;;;;8.63;5.97;;;-0.10;99.90;;;;;;4966584;28;20195;-70
2021/01/10 01:26:35;;;;;;;7.80;5.78;;;-0.10;99.90;;;;;;4963230;28;20051;-67
2021/01/10 01:29:01;;;;;;;7.07;5.32;;;-0.10;99.90;;;;;;4966025;28;20133;-66
2021/01/10 01:31:29;;;;;;;8.23;6.28;;;0.00;99.90;;;;;;4965732;28;20398;-68
2021/01/10 01:33:56;;;;;;;7.45;6.43;;;-0.10;99.90;;;;;;4967099;28;20047;-64
2021/01/10 01:36:27;;;;;;;7.05;5.22;;;-0.10;99.90;;;;;;4964457;28;20141;-65
2021/01/10 01:38:55;;;;;;;8.07;5.88;;;-0.10;99.90;;;;;;4966094;28;20065;-70
2021/01/10 01:41:22;;;;;;;7.05;5.78;;;-0.10;99.90;;;;;;4965284;28;20105;-67
2021/01/10 01:44:07;;;;;;;9.80;5.85;;;-0.10;99.90;;;;;;4966147;28;20089;-66
2021/01/10 01:46:36;;;;;;;7.43;5.88;;;0.00;99.90;;;;;;4964588;28;20039;-64
2021/01/10 01:49:10;;;;;;;10.00;5.80;;;-0.10;99.90;;;;;;4966065;28;20038;-65
2021/01/10 01:51:39;;;;;;;9.85;6.55;;;0.00;99.90;;;;;;4963901;28;20053;-63
2021/01/10 01:54:06;;;;;;;7.45;5.55;;;0.00;99.90;;;;;;4965184;28;20074;-65
2021/01/10 01:56:33;;;;;;;6.35;5.13;;;0.00;99.90;;;;;;4967129;28;20194;-65
2021/01/10 01:59:08;;;;;;;6.90;5.20;;;0.00;99.90;;;;;;4965703;28;20049;-65
2021/01/10 02:01:37;;;;;;;7.75;6.00;;;0.00;99.90;;;;;;4964723;28;20050;-65
2021/01/10 02:04:14;;;;;;;7.75;6.95;;;0.00;99.90;;;;;;4966416;28;20161;-67
2021/01/10 02:06:49;;;;;;;8.32;5.80;;;0.00;99.90;;;;;;4966482;28;20054;-66
2021/01/10 02:09:16;;;;;;;10.23;5.68;;;0.00;99.90;;;;;;4960848;28;20150;-64
2021/01/10 02:11:47;;;;;;;6.40;4.85;;;-0.10;99.90;;;;;;4965457;28;20073;-64
2021/01/10 02:14:17;;;;;;;;;;;-0.10;99.90;;;;;;4966534;28;20049;-64
2021/01/10 02:16:44;;;;;;;7.85;5.03;;;-0.10;99.90;;;;;;4965762;28;19929;-65
2021/01/10 02:19:21;;;;;;;7.75;5.75;;;-0.20;99.90;;;;;;4964194;28;20641;-66
2021/01/10 02:21:52;;;;;;;11.30;6.97;;;-0.20;99.90;;;;;;4965469;28;20372;-68
2021/01/10 02:24:19;;;;;;;8.93;5.60;;;-0.30;99.90;;;;;;4965355;28;20126;-69
2021/01/10 02:26:48;;;;;;;6.88;5.57;;;-0.30;99.90;;;;;;4966122;28;20046;-67
2021/01/10 02:29:16;;;;;;;9.40;5.95;;;-0.30;99.90;;;;;;4964292;28;20047;-66
2021/01/10 02:31:45;;;;;;;9.32;5.97;;;-0.30;99.90;;;;;;4966012;28;20078;-63
2021/01/10 02:34:16;;;;;;;8.57;5.82;;;-0.30;99.90;;;;;;4965431;28;20070;-67
2021/01/10 02:37:05;;;;;;;;;;;-0.30;99.90;;;;;;4966279;28;20113;-68
2021/01/10 02:39:51;;;;;;;8.32;5.90;;;-0.30;99.90;;;;;;4961178;28;19926;-65
2021/01/10 02:42:35;;;;;;;9.43;6.18;;;-0.30;99.90;;;;;;4965286;28;20082;-67
2021/01/10 02:45:10;;;;;;;9.00;6.45;;;-0.30;99.90;;;;;;4965235;28;20046;-71
2021/01/10 02:47:38;;;;;;;9.48;6.43;;;-0.30;99.90;;;;;;4963946;28;20161;-65
2021/01/10 02:50:06;;;;;;;10.48;5.93;;;-0.30;99.90;;;;;;4966041;28;20046;-66
2021/01/10 02:52:33;;;;;;;9.50;6.63;;;-0.30;99.90;;;;;;4963907;28;20082;-64
2021/01/10 02:55:02;;;;;;;12.15;7.53;;;-0.30;99.90;;;;;;4964047;28;20086;-65
2021/01/10 02:57:37;;;;;;;13.63;8.45;;;-0.30;99.90;;;;;;4960171;28;20058;-67
2021/01/10 03:00:06;;;;;;;9.48;7.80;;;-0.30;99.90;;;;;;4965419;28;20098;-65
2021/01/10 03:02:55;;;;;;;12.57;7.53;;;-0.20;99.90;;;;;;4961785;28;20069;-67
2021/01/10 03:05:23;;;;;;;12.50;7.65;;;-0.20;99.90;;;;;;4963924;28;20043;-68
2021/01/10 03:08:09;;;;;;;13.18;8.40;;;-0.20;99.90;;;;;;4964172;28;20058;-70
2021/01/10 03:10:36;;;;;;;10.90;7.25;;;-0.20;99.90;;;;;;4964983;28;20050;-66
2021/01/10 03:13:04;;;;;;;10.52;7.57;;;-0.20;99.90;;;;;;4965188;28;20064;-65
2021/01/10 03:15:32;;;;;;;11.10;7.10;;;-0.20;99.90;;;;;;4963631;28;20070;-67
2021/01/10 03:18:15;;;;;;;13.02;8.75;;;-0.20;99.90;;;;;;4964056;28;20046;-66
2021/01/10 03:20:42;;;;;;;14.57;10.02;;;-0.20;99.90;;;;;;4955185;28;20754;-68
2021/01/10 03:23:09;;;;;;;11.98;8.02;;;-0.20;99.90;;;;;;4959653;28;20117;-67
2021/01/10 03:25:36;;;;;;;12.70;8.60;;;-0.10;99.90;;;;;;4959563;28;20042;-69
2021/01/10 03:28:02;;;;;;;10.80;8.00;;;-0.10;99.90;;;;;;4962371;28;20106;-72
2021/01/10 03:30:29;;;;;;;11.35;7.78;;;-0.10;99.90;;;;;;4962890;28;20729;-66
2021/01/10 03:32:56;;;;;;;9.80;7.18;;;0.00;99.90;;;;;;4963630;28;20589;-68
2021/01/10 03:35:22;;;;;;;12.85;7.57;;;0.00;99.90;;;;;;4963218;28;20110;-70
2021/01/10 03:37:49;;;;;;;11.57;7.47;;;0.00;99.90;;;;;;4959436;28;20067;-68
2021/01/10 03:40:17;;;;;;;11.60;6.88;;;0.00;99.90;;;;;;4961722;28;20707;-63
2021/01/10 03:42:43;;;;;;;10.32;6.40;;;0.10;99.90;;;;;;4964517;28;20375;-65
2021/01/10 03:45:12;;;;;;;10.75;7.50;;;0.10;99.90;;;;;;4962775;28;20066;-70
2021/01/10 03:47:38;;;;;;;14.32;8.15;;;0.10;99.90;;;;;;4964220;28;20045;-64
2021/01/10 03:50:07;;;;;;;14.82;8.60;;;0.20;99.90;;;;;;4964614;28;20039;-68
2021/01/10 03:52:34;;;;;;;10.65;7.78;;;0.20;99.90;;;;;;4962262;28;20054;-66
2021/01/10 03:55:02;;;;;;;9.10;6.60;;;0.20;99.90;;;;;;4962761;28;20081;-66
2021/01/10 03:57:29;;;;;;;9.63;7.15;;;0.20;99.90;;;;;;4963015;28;20473;-72
2021/01/10 03:59:56;;;;;;;9.57;6.97;;;0.20;99.90;;;;;;4963345;28;20053;-67
2021/01/10 04:02:22;;;;;;;12.98;7.75;;;0.20;99.90;;;;;;4964084;28;20084;-66
2021/01/10 04:04:49;;;;;;;12.88;7.55;;;0.20;99.90;;;;;;4964022;28;20074;-67
2021/01/10 04:07:15;;;;;;;12.68;7.72;;;0.30;99.90;;;;;;4961740;28;20065;-64
2021/01/10 04:09:42;;;;;;;8.32;7.00;;;0.30;99.90;;;;;;4963845;28;20527;-71
2021/01/10 04:12:08;;;;;;;10.02;8.05;;;0.30;99.90;;;;;;4962333;28;20057;-66
2021/01/10 04:14:35;;;;;;;11.80;8.38;;;0.30;99.90;;;;;;4963424;28;20191;-64
2021/01/10 04:17:03;;;;;;;12.68;7.78;;;0.30;99.90;;;;;;4963662;28;20556;-65
2021/01/10 04:19:29;;;;;;;14.48;9.48;;;0.30;99.90;;;;;;4962910;28;20145;-65
2021/01/10 04:21:56;;;;;;;17.10;8.55;;;0.30;99.90;;;;;;4963335;28;20134;-66
2021/01/10 04:24:22;;;;;;;11.18;8.27;;;0.30;99.90;;;;;;4960432;28;20183;-68
2021/01/10 04:26:50;;;;;;;9.90;7.25;;;0.30;99.90;;;;;;4964196;28;20121;-65
2021/01/10 04:29:19;;;;;;;12.38;8.25;;;0.30;99.90;;;;;;4960951;28;20113;-67
2021/01/10 04:31:47;;;;;;;10.15;7.18;;;0.30;99.90;;;;;;4963419;28;20046;-68
2021/01/10 04:34:14;;;;;;;10.98;7.78;;;0.30;99.90;;;;;;4963641;28;20050;-67
2021/01/10 04:36:41;;;;;;;11.20;7.25;;;0.30;99.90;;;;;;4963937;28;20038;-66
2021/01/10 04:39:07;;;;;;;9.48;6.70;;;0.40;99.90;;;;;;4963301;28;20410;-68
2021/01/10 04:41:34;;;;;;;10.25;8.32;;;0.40;99.90;;;;;;4962977;28;20471;-68
2021/01/10 04:44:01;;;;;;;8.18;6.28;;;0.40;99.90;;;;;;4963032;28;20528;-64
2021/01/10 04:46:29;;;;;;;9.65;7.47;;;0.40;99.90;;;;;;4964607;28;20349;-65
2021/01/10 04:48:57;;;;;;;8.38;6.75;;;0.40;99.90;;;;;;4963533;28;20485;-68
2021/01/10 04:51:26;;;;;;;7.57;6.15;;;0.40;99.90;;;;;;4961326;28;20160;-64
2021/01/10 04:53:56;;;;;;;9.35;5.72;;;0.50;99.90;;;;;;4960103;28;20054;-64
2021/01/10 04:56:28;;;;;;;7.90;4.95;;;0.50;99.90;;;;;;4962238;28;20070;-68
2021/01/10 04:59:05;;;;;;;5.30;4.10;;;0.60;99.90;;;;;;4960652;28;20057;-65
2021/01/10 05:01:44;;;;;;;4.15;3.65;;;0.60;99.90;;;;;;4956120;28;20118;-64
2021/01/10 05:04:11;;;;;;;5.43;3.37;;;0.70;99.90;;;;;;4961612;28;20213;-63
2021/01/10 05:06:38;;;;;;;4.07;2.72;;;0.70;99.90;;;;;;4962689;28;20144;-67
2021/01/10 05:09:06;;;;;;;4.50;2.75;;;0.80;99.90;;;;;;4961236;28;20051;-69
2021/01/10 05:11:35;;;;;;;2.70;2.20;;;0.90;99.90;;;;;;4950699;28;20058;-68
2021/01/10 05:14:03;;;;;;;2.80;2.20;;;0.90;99.90;;;;;;4964165;28;20054;-66
2021/01/10 05:16:34;;;;;;;3.97;2.13;;;1.00;99.90;;;;;;4965250;28;20406;-69
2021/01/10 05:19:03;;;;;;;6.30;3.45;;;1.10;99.90;;;;;;4964584;28;20050;-66
2021/01/10 05:21:29;;;;;;;3.17;2.58;;;1.10;99.90;;;;;;4963654;28;20075;-67
2021/01/10 05:23:57;;;;;;;3.20;2.30;;;1.20;99.90;;;;;;4963325;28;20042;-66
2021/01/10 05:26:35;;;;;;;2.78;2.55;;;1.30;99.90;;;;;;4964810;28;20050;-68
2021/01/10 05:29:08;;;;;;;3.45;2.47;;;1.30;99.90;;;;;;4963931;28;20065;-72
2021/01/10 05:31:40;;;;;;;3.95;2.20;;;1.40;99.90;;;;;;4965707;28;20050;-67
2021/01/10 05:34:13;;;;;;;3.83;2.90;;;1.50;99.90;;;;;;4966428;28;20071;-65
2021/01/10 05:36:41;;;;;;;3.03;2.17;;;1.50;99.90;;;;;;4966338;28;20043;-71
2021/01/10 05:39:13;;;;;;;3.22;2.78;;;1.50;99.90;;;;;;4966045;28;20049;-66
2021/01/10 05:41:49;;;;;;;6.10;2.30;;;1.60;99.90;;;;;;4965958;28;20054;-70
2021/01/10 05:44:16;;;;;;;2.35;2.15;;;1.60;99.90;;;;;;4967424;28;20054;-68
2021/01/10 05:46:42;;;;;;;2.50;1.70;;;1.70;99.90;;;;;;4968373;28;20639;-67
2021/01/10 05:49:20;;;;;;;3.35;2.40;;;1.70;99.90;;;;;;4966560;28;20054;-67
2021/01/10 05:51:48;;;;;;;3.08;2.30;;;1.60;99.90;;;;;;4967942;28;20482;-68
2021/01/10 05:54:35;;;;;;;3.55;3.25;;;1.60;99.90;;;;;;4966195;28;20051;-68
2021/01/10 05:57:03;;;;;;;4.93;3.00;;;1.60;99.90;;;;;;4963864;28;20055;-71
2021/01/10 05:59:33;;;;;;;2.90;2.47;;;1.60;99.90;;;;;;4963479;28;20125;-71
2021/01/10 06:02:02;;;;;;;2.45;2.03;;;1.60;99.90;;;;;;4966711;28;20137;-67
2021/01/10 06:04:30;;;;;;;3.57;2.17;;;1.70;99.90;;;;;;4962522;28;20054;-66
2021/01/10 06:06:57;;;;;;;2.33;1.85;;;1.70;99.90;;;;;;4965502;28;20303;-75
2021/01/10 06:09:25;;;;;;;4.90;2.13;;;1.80;99.90;;;;;;4964799;28;20140;-67
2021/01/10 06:11:51;;;;;;;2.83;1.92;;;1.90;99.90;;;;;;4965652;28;20101;-65
2021/01/10 06:14:26;;;;;;;4.50;2.25;;;1.90;99.90;;;;;;4965984;28;20043;-72
2021/01/10 06:16:57;;;;;;;2.40;1.33;;;1.90;99.90;;;;;;4966070;28;20034;-65
2021/01/10 06:19:29;;;;;;;4.18;2.67;;;1.90;99.90;;;;;;4964765;28;20065;-68
2021/01/10 06:21:59;;;;;;;2.45;2.15;;;1.90;99.90;;;;;;4965626;28;20126;-66
2021/01/10 06:24:33;;;;;;;4.60;1.67;;;1.90;99.90;;;;;;4966007;28;20660;-65
2021/01/10 06:27:05;;;;;;;2.65;1.90;;;1.90;99.90;;;;;;4965090;28;20578;-70
2021/01/10 06:29:39;;;;;;;3.67;2.28;;;1.90;99.90;;;;;;4964439;28;20051;-67
2021/01/10 06:32:12;;;;;;;5.43;2.58;;;1.80;99.90;;;;;;4964775;28;20412;-68
2021/01/10 06:34:40;;;;;;;4.85;2.60;;;1.80;99.90;;;;;;4966185;28;20066;-65
2021/01/10 06:37:08;;;;;;;3.13;2.67;;;1.80;99.90;;;;;;4964984;28;20046;-65
2021/01/10 06:39:44;;;;;;;2.70;2.47;;;1.80;99.90;;;;;;4964192;28;20280;-66
2021/01/10 06:42:12;;;;;;;2.83;2.22;;;1.80;99.90;;;;;;4965439;28;20051;-66
2021/01/10 06:44:41;;;;;;;3.90;2.55;;;1.80;99.90;;;;;;4966038;28;20121;-64
2021/01/10 06:47:18;;;;;;;2.97;2.40;;;1.80;99.90;;;;;;4965238;28;20054;-66
2021/01/10 06:49:46;;;;;;;4.95;2.88;;;1.80;99.90;;;;;;4963899;28;20454;-67
2021/01/10 06:52:14;;;;;;;4.15;2.50;;;1.80;99.90;;;;;;4964567;28;20125;-68
2021/01/10 06:54:45;;;;;;;4.38;2.85;;;1.80;99.90;;;;;;4964281;28;20550;-68
2021/01/10 06:57:13;;;;;;;3.10;2.80;;;1.80;99.90;;;;;;4964086;28;20082;-67
2021/01/10 07:00:02;;;;;;;4.82;2.95;;;1.80;99.90;;;;;;4965216;28;20047;-64
2021/01/10 07:02:29;;;;;;;4.38;3.83;;;1.70;99.90;;;;;;4963737;28;20618;-65
2021/01/10 07:04:56;;;;;;;3.47;2.88;;;1.70;99.90;;;;;;4964434;28;20101;-68
2021/01/10 07:07:40;;;;;;;4.40;2.83;;;1.60;99.90;;;;;;4963058;28;20050;-64
2021/01/10 07:10:11;;;;;;;3.97;3.58;;;1.50;99.90;;;;;;4963224;28;20061;-64
2021/01/10 07:12:39;;;;;;;4.40;3.00;;;1.50;99.90;;;;;;4964891;28;20181;-65
2021/01/10 07:15:17;;;;;;;7.22;3.78;;;1.40;99.90;;;;;;4965116;28;20117;-68
2021/01/10 07:18:04;;;;;;;4.60;4.15;;;1.40;99.90;;;;;;4963327;28;20188;-65
2021/01/10 07:20:41;;;;;;;3.88;2.85;;;1.30;99.90;;;;;;4963058;28;20074;-71
2021/01/10 07:23:31;;;;;;;8.75;5.10;;;1.30;99.90;;;;;;4963820;28;20149;-67
2021/01/10 07:25:59;;;;;;;4.47;3.80;;;1.30;99.90;;;;;;4963391;28;20396;-66
2021/01/10 07:28:34;;;;;;;4.82;2.83;;;1.20;99.90;;;;;;4964333;28;20074;-68
2021/01/10 07:31:09;;;;;;;3.35;2.45;;;1.20;99.90;;;;;;4964730;28;20050;-69
2021/01/10 07:33:36;;;;;;;7.05;3.20;;;1.20;99.90;;;;;;4960700;28;20090;-64
2021/01/10 07:36:03;;;;;;;5.40;2.92;;;1.20;99.90;;;;;;4965235;28;20108;-66
2021/01/10 07:38:32;;;;;;;3.55;3.08;;;1.20;99.90;;;;;;4963146;28;20521;-67
2021/01/10 07:41:22;;;;;;;3.70;3.17;;;1.20;99.90;;;;;;4964502;28;20066;-65
2021/01/10 07:43:50;;;;;;;3.33;2.97;;;1.20;99.90;;;;;;4962880;28;20035;-64
2021/01/10 07:46:52;;;;;;;5.43;3.80;;;1.20;99.90;;;;;;4965069;28;20353;-63
2021/01/10 07:49:27;;;;;;;5.20;3.53;;;1.20;99.90;;;;;;4962718;28;20539;-64
2021/01/10 07:51:54;;;;;;;6.78;4.28;;;1.20;99.90;;;;;;4963508;28;20046;-69
2021/01/10 07:54:50;;;;;;;5.07;3.83;;;1.30;99.90;;;;;;4961396;28;20145;-64
2021/01/10 07:57:30;;;;;;;6.25;3.38;;;1.20;99.90;;;;;;4957120;28;20053;-69
2021/01/10 08:00:15;;;;;;;4.65;3.50;;;1.30;99.90;;;;;;4963890;28;20055;-67
2021/01/10 08:02:52;;;;;;;5.18;3.17;;;1.40;99.90;;;;;;4962104;28;20546;-64
2021/01/10 08:05:21;;;;;;;4.72;4.00;;;1.40;99.90;;;;;;4962799;28;20073;-64
2021/01/10 08:07:56;;;;;;;3.47;2.95;;;1.40;99.90;;;;;;4964209;28;20058;-72
2021/01/10 08:10:25;;;;;;;5.57;2.88;;;1.30;99.90;;;;;;4963740;28;20090;-67
2021/01/10 08:12:52;;;;;;;4.78;3.70;;;1.30;99.90;;;;;;4964069;28;20097;-68
2021/01/10 08:15:19;;;;;;;4.03;3.25;;;1.30;99.90;;;;;;4962577;28;20054;-64
2021/01/10 08:17:46;;;;;;;5.47;3.35;;;1.30;99.90;;;;;;4964283;28;20117;-67
2021/01/10 08:20:14;;;;;;;6.13;4.07;;;1.30;99.90;;;;;;4964122;28;20185;-66
2021/01/10 08:22:40;;;;;;;4.18;3.58;;;1.30;99.90;;;;;;4963245;28;20113;-68
2021/01/10 08:25:18;;;;;;;5.63;3.53;;;1.30;99.90;;;;;;4960416;28;20042;-71
2021/01/10 08:27:45;;;;;;;3.83;3.25;;;1.30;99.90;;;;;;4962496;28;20058;-70
2021/01/10 08:30:13;;;;;;;3.75;3.38;;;1.40;99.90;;;;;;4963831;28;20055;-68
2021/01/10 08:32:40;;;;;;;6.32;3.50;;;1.30;99.90;;;;;;4964204;28;20105;-68
2021/01/10 08:35:09;;;;;;;5.20;3.90;;;1.40;99.90;;;;;;4963984;28;20105;-69
2021/01/10 08:37:37;;;;;;;4.22;3.10;;;1.40;99.90;;;;;;4961959;28;20045;-67
2021/01/10 08:40:07;;;;;;;8.70;3.58;;;1.40;99.90;;;;;;4962289;28;20039;-66
2021/01/10 08:42:34;;;;;;;3.80;2.95;;;1.40;99.90;;;;;;4962095;28;20130;-64
2021/01/10 08:45:19;;;;;;;5.45;4.05;;;1.40;99.90;;;;;;4962151;28;20070;-64
2021/01/10 08:47:48;;;;;;;5.05;3.97;;;1.40;99.90;;;;;;4961091;28;20146;-65
2021/01/10 08:50:16;;;;;;;3.83;2.83;;;1.40;99.90;;;;;;4964091;28;20074;-66
2021/01/10 08:52:52;;;;;;;6.03;3.97;;;1.40;99.90;;;;;;4962756;28;20042;-65
2021/01/10 08:55:54;;;;;;;4.35;3.33;;;1.40;99.90;;;;;;4959222;28;20047;-66
2021/01/10 08:58:21;;;;;;;3.47;2.92;;;1.40;99.90;;;;;;4962800;28;20129;-65
2021/01/10 09:00:48;;;;;;;3.85;3.20;;;1.40;99.90;;;;;;4964100;28;20055;-66
2021/01/10 09:03:17;;;;;;;3.35;3.05;;;1.40;99.90;;;;;;4963465;28;20054;-65
2021/01/10 09:05:49;;;;;;;3.65;2.92;;;1.40;99.90;;;;;;4967480;28;20483;-66
2021/01/10 09:08:35;;;;;;;3.70;2.60;;;1.40;99.90;;;;;;4965395;28;20053;-66
2021/01/10 09:11:13;;;;;;;4.18;3.10;;;1.40;99.90;;;;;;4963381;28;20104;-68
2021/01/10 09:13:47;;;;;;;3.28;2.92;;;1.40;99.90;;;;;;4966204;28;20050;-67
2021/01/10 09:16:17;;;;;;;3.22;2.33;;;1.30;99.90;;;;;;4966546;28;20117;-64
2021/01/10 09:18:47;;;;;;;4.15;2.42;;;1.30;99.90;;;;;;4967111;28;20059;-64
2021/01/10 09:21:15;;;;;;;3.42;2.30;;;1.30;99.90;;;;;;4966241;28;20145;-66
2021/01/10 09:23:58;;;;;;;4.22;2.33;;;1.30;99.90;;;;;;4965640;28;20050;-68
2021/01/10 09:26:31;;;;;;;2.47;2.28;;;1.30;99.90;;;;;;4966152;28;20094;-71
2021/01/10 09:28:58;;;;;;;3.50;2.80;;;1.30;99.90;;;;;;4966678;28;20151;-67
2021/01/10 09:31:47;;;;;;;2.70;2.03;;;1.30;99.90;;;;;;4965838;28;20097;-64
2021/01/10 09:34:15;;;;;;;2.93;2.63;;;1.30;99.90;;;;;;4964267;28;20047;-66
2021/01/10 09:36:42;;;;;;;2.65;2.35;;;1.20;99.90;;;;;;4966682;28;20046;-68
2021/01/10 09:39:09;;;;;;;3.85;2.63;;;1.20;99.90;;;;;;4965165;28;20050;-65
2021/01/10 09:41:54;;;;;;;3.67;2.58;;;1.20;99.90;;;;;;4966254;28;20046;-65
2021/01/10 09:44:20;;;;;;;4.03;3.00;;;1.20;99.90;;;;;;4966230;28;20066;-67
2021/01/10 09:46:54;;;;;;;3.00;2.60;;;1.20;99.90;;;;;;4966320;28;20050;-66
2021/01/10 09:49:31;;;;;;;3.95;3.53;;;1.20;99.90;;;;;;4965152;28;20062;-66
2021/01/10 09:52:10;;;;;;;3.70;2.15;;;1.20;99.90;;;;;;4965354;28;20050;-71
2021/01/10 09:54:37;;;;;;;2.78;2.45;;;1.20;99.90;;;;;;4965557;28;20059;-66
2021/01/10 09:57:10;;;;;;;3.83;2.95;;;1.20;99.90;;;;;;4965568;28;20082;-65
2021/01/10 09:59:39;;;;;;;2.70;2.50;;;1.20;99.90;;;;;;4962650;28;20138;-65
2021/01/10 10:02:19;;;;;;;3.72;2.70;;;1.20;99.90;;;;;;4966534;28;20495;-67
2021/01/10 10:04:47;;;;;;;;;;;1.10;99.90;;;;;;4966443;28;20078;-65
2021/01/10 10:07:28;;;;;;;4.78;2.72;;;1.20;99.90;;;;;;4964097;28;19969;-64
2021/01/10 10:09:55;;;;;;;4.45;2.30;;;1.20;99.90;;;;;;4965367;28;20070;-65
2021/01/10 10:12:23;;;;;;;2.53;2.13;;;1.20;99.90;;;;;;4966096;28;20047;-66
2021/01/10 10:15:07;;;;;;;2.55;2.35;;;1.20;99.90;;;;;;4965280;28;20498;-70
2021/01/10 10:17:38;;;;;;;5.38;3.50;;;1.20;99.90;;;;;;4960466;28;20137;-64
2021/01/10 10:20:06;;;;;;;4.25;2.55;;;1.20;99.90;;;;;;4965751;28;20388;-66
2021/01/10 10:22:34;;;;;;;2.30;2.10;;;1.20;99.90;;;;;;4965359;28;20054;-68
2021/01/10 10:25:04;;;;;;;3.58;3.10;;;1.20;99.90;;;;;;4962615;28;20043;-66
2021/01/10 10:27:32;;;;;;;9.25;3.35;;;1.20;99.90;;;;;;4964474;28;20054;-67
2021/01/10 10:29:59;;;;;;;4.80;2.83;;;1.20;99.90;;;;;;4965591;28;20127;-65
2021/01/10 10:32:27;;;;;;;2.60;2.08;;;1.10;99.90;;;;;;4965371;28;20134;-65
2021/01/10 10:34:54;;;;;;;3.03;2.45;;;1.20;99.90;;;;;;4965828;28;20663;-69
2021/01/10 10:37:21;;;;;;;4.15;2.17;;;1.10;99.90;;;;;;4963487;28;20136;-66
2021/01/10 10:39:48;;;;;;;3.08;2.08;;;1.00;99.90;;;;;;4965584;28;20593;-64
2021/01/10 10:42:16;;;;;;;2.78;2.30;;;1.00;99.90;;;;;;4965125;28;20061;-68
2021/01/10 10:44:44;;;;;;;2.80;1.92;;;0.90;99.90;;;;;;4965889;28;20135;-69
2021/01/10 10:47:15;;;;;;;2.85;1.95;;;0.90;99.90;;;;;;4962237;28;20507;-65
2021/01/10 10:49:43;;;;;;;3.92;2.13;;;0.90;99.90;;;;;;4966490;28;20053;-71
2021/01/10 10:52:11;;;;;;;2.58;2.13;;;0.90;99.90;;;;;;4964339;28;20066;-69
2021/01/10 10:54:38;;;;;;;5.53;3.75;;;0.90;99.90;;;;;;4965211;28;20050;-64
2021/01/10 10:57:09;;;;;;;6.80;3.75;;;0.90;99.90;;;;;;4965171;28;20117;-74
2021/01/10 10:59:39;;;;;;;3.85;1.85;;;0.90;99.90;;;;;;4964164;28;20378;-68
2021/01/10 11:02:09;;;;;;;4.88;1.63;;;0.90;99.90;;;;;;4964982;28;20491;-65
2021/01/10 11:04:38;;;;;;;3.55;2.63;;;0.90;99.90;;;;;;4965061;28;20071;-68
2021/01/10 11:07:05;;;;;;;2.40;2.20;;;1.00;99.90;;;;;;4964501;28;20051;-66
2021/01/10 11:09:33;;;;;;;1.95;1.80;;;1.00;99.90;;;;;;4963417;28;20058;-69
2021/01/10 11:11:59;;;;;;;2.72;1.70;;;1.00;99.90;;;;;;4964243;28;20144;-70
2021/01/10 11:14:26;;;;;;;2.42;1.63;;;1.00;99.90;;;;;;4965383;28;20047;-64
2021/01/10 11:16:53;;;;;;;1.92;1.70;;;1.00;99.90;;;;;;4964766;28;20054;-68
2021/01/10 11:19:22;;;;;;;4.13;2.42;;;1.00;99.90;;;;;;4963064;28;20145;-65
2021/01/10 11:21:51;;;;;;;3.47;2.60;;;1.10;99.90;;;;;;4964628;28;20046;-69
2021/01/10 11:24:18;;;;;;;2.55;2.13;;;1.10;99.90;;;;;;4964307;28;20042;-64
2021/01/10 11:26:45;;;;;;;1.80;1.70;;;1.10;99.90;;;;;;4963432;28;20149;-71
2021/01/10 11:29:14;;;;;;;1.63;1.50;;;1.10;99.90;;;;;;4963541;28;20047;-68
2021/01/10 11:31:41;;;;;;;1.63;1.50;;;1.20;99.90;;;;;;4959892;28;20109;-66
2021/01/10 11:34:10;;;;;;;2.20;1.83;;;1.20;99.90;;;;;;4964591;28;20051;-67
2021/01/10 11:36:41;;;;;;;2.63;2.30;;;1.20;99.90;;;;;;4964955;28;20129;-66
2021/01/10 11:39:07;;;;;;;2.63;2.28;;;1.20;99.90;;;;;;4963621;28;20848;-64
2021/01/10 11:41:34;;;;;;;2.47;2.08;;;1.20;99.90;;;;;;4962627;28;20383;-66
2021/01/10 11:44:00;;;;;;;4.00;2.30;;;1.30;99.90;;;;;;4964178;28;20050;-67
2021/01/10 11:46:27;;;;;;;3.88;2.78;;;1.30;99.90;;;;;;4962917;28;20059;-66
2021/01/10 11:48:53;;;;;;;3.75;2.83;;;1.30;99.90;;;;;;4963907;28;20053;-65
2021/01/10 11:51:20;;;;;;;3.03;1.88;;;1.30;99.90;;;;;;4963261;28;20062;-69
2021/01/10 11:53:46;;;;;;;3.17;2.67;;;1.30;99.90;;;;;;4963476;28;20039;-71
2021/01/10 11:56:13;;;;;;;3.13;2.58;;;1.30;99.90;;;;;;4960287;28;20049;-67
2021/01/10 11:58:41;;;;;;;14.60;8.27;;;1.30;99.90;;;;;;4958087;28;20050;-65
2021/01/10 12:01:08;;;;;;;3.40;3.10;;;1.30;99.90;;;;;;4963984;28;20062;-70
2021/01/10 12:03:35;;;;;;;4.95;3.53;;;1.30;99.90;;;;;;4963159;28;20046;-65
2021/01/10 12:06:03;;;;;;;4.53;3.47;;;1.40;99.90;;;;;;4964283;28;20138;-70
2021/01/10 12:08:30;;;;;;;3.33;2.80;;;1.40;99.90;;;;;;4963107;28;20055;-73
2021/01/10 12:10:56;;;;;;;6.78;3.35;;;1.40;99.90;;;;;;4963505;28;20068;-67
2021/01/10 12:13:23;;;;;;;4.53;3.05;;;1.40;99.90;;;;;;4962185;28;20078;-70
2021/01/10 12:15:50;;;;;;;3.72;2.83;;;1.40;99.90;;;;;;4965653;28;20682;-67
2021/01/10 12:18:16;;;;;;;4.18;3.40;;;1.40;99.90;;;;;;4963338;28;20081;-70
2021/01/10 12:20:43;;;;;;;6.57;5.63;;;1.50;99.90;;;;;;4961569;28;20089;-67
2021/01/10 12:23:10;;;;;;;4.97;4.10;;;1.50;99.90;;;;;;4961651;28;20046;-67
2021/01/10 12:25:37;;;;;;;5.20;3.40;;;1.50;99.90;;;;;;4963999;28;20055;-68
2021/01/10 12:28:09;;;;;;;3.40;2.88;;;1.50;99.90;;;;;;4963692;28;20060;-64
2021/01/10 12:30:37;;;;;;;3.63;3.03;;;1.50;99.90;;;;;;4965091;28;20054;-72
2021/01/10 12:33:03;;;;;;;4.55;3.40;;;1.50;99.90;;;;;;4963646;28;20507;-65
2021/01/10 12:35:30;;;;;;;3.60;3.15;;;1.50;99.90;;;;;;4962439;28;20066;-65
2021/01/10 12:37:56;;;;;;;4.20;3.83;;;1.60;99.90;;;;;;4965058;28;20060;-69
2021/01/10 12:40:23;;;;;;;6.05;3.80;;;1.60;99.90;;;;;;4966774;28;20826;-68
2021/01/10 12:42:50;;;;;;;4.32;3.50;;;1.60;99.90;;;;;;4967726;28;20057;-66
2021/01/10 12:45:17;;;;;;;4.38;3.97;;;1.60;99.90;;;;;;4967742;28;20053;-70
2021/01/10 12:47:44;;;;;;;4.88;4.03;;;1.70;99.90;;;;;;4967616;28;20757;-66
2021/01/10 12:50:14;;;;;;;5.78;3.65;;;1.70;99.90;;;;;;4967964;28;20050;-69
2021/01/10 12:52:42;;;;;;;7.55;3.38;;;1.70;99.90;;;;;;4966577;28;20051;-68
2021/01/10 12:55:10;;;;;;;5.50;4.43;;;1.70;99.90;;;;;;4961540;28;20039;-65
2021/01/10 12:57:37;;;;;;;4.57;3.47;;;1.80;99.90;;;;;;4967118;28;20223;-69
2021/01/10 13:00:11;;;;;;;4.85;3.65;;;1.70;99.90;;;;;;4967382;28;20050;-67
2021/01/10 13:02:38;;;;;;;3.90;3.20;;;1.80;99.90;;;;;;4965153;28;20054;-64
2021/01/10 13:05:10;;;;;;;6.30;3.83;;;1.80;99.90;;;;;;4967667;28;20046;-64
2021/01/10 13:07:48;;;;;;;4.47;3.33;;;1.80;99.90;;;;;;4960197;28;20046;-65